Terminal Aerodrome Forecast
Issued by NWS

Home | Current Version | Previous Version | Text Only | Print | Product List | Glossary On
Versions: 1 2 3 4 5 6 7 8 9 10 11 12 13 14 15 16
000
FTUS46 KSTO 120537
TAFSAC
TAF
KSAC 120537Z 1206/1306 VRB04KT P6SM SCT250
     FM120900 VRB04KT 3SM BR SCT250
      TEMPO 1211/1214 1/4SM FG
     FM121600 VRB04KT P6SM SCT250
      TEMPO 1216/1218 5SM HZ=

USA.gov is the U.S. government's official web portal to all federal, state and local government web resources and services.